Time;durP1;ratioP1;P1;durP2;ratioP2;P2;SDS_P1;SDS_P2;PMS_P1;PMS_P2;Temp;Humidity;BMP_temperature;BMP_pressure;BME280_temperature;BME280_humidity;BME280_pressure;Samples;Min_cycle;Max_cycle;Signal;HPM_P1;HPM_P2
2021/04/06 00:00:59;;;;;;;16.75;7.25;;;;;;;;;;5051278;23;20042;-59
2021/04/06 00:03:27;;;;;;;13.52;6.95;;;;;;;;;;5023370;28;20374;-61
2021/04/06 00:06:00;;;;;;;21.90;7.38;;;;;;;;;;5025351;28;20029;-60
2021/04/06 00:08:28;;;;;;;15.68;6.65;;;;;;;;;;5025639;28;20018;-62
2021/04/06 00:10:58;;;;;;;14.73;6.18;;;;;;;;;;5025598;28;20022;-61
2021/04/06 00:13:26;;;;;;;12.35;5.65;;;;;;;;;;5025160;28;20094;-61
2021/04/06 00:15:55;;;;;;;16.38;6.43;;;;;;;;;;5025625;28;20159;-61
2021/04/06 00:18:25;;;;;;;17.80;6.55;;;;;;;;;;5025080;28;20064;-61
2021/04/06 00:20:57;;;;;;;14.80;6.38;;;1.70;99.90;;;;;;5025109;28;20089;-60
2021/04/06 00:23:28;;;;;;;16.52;6.05;;;1.30;99.90;;;;;;5025284;28;20047;-62
2021/04/06 00:25:57;;;;;;;15.75;6.90;;;1.30;99.90;;;;;;5023569;28;20317;-62
2021/04/06 00:28:28;;;;;;;14.90;6.00;;;1.30;99.90;;;;;;5024787;28;20022;-61
2021/04/06 00:30:56;;;;;;;14.60;6.65;;;1.30;99.90;;;;;;5024760;28;20064;-60
2021/04/06 00:33:33;;;;;;;14.48;6.57;;;1.20;99.90;;;;;;5024438;28;20017;-60
2021/04/06 00:36:02;;;;;;;12.93;6.38;;;1.20;99.90;;;;;;5023564;28;20308;-62
2021/04/06 00:38:40;;;;;;;12.52;5.65;;;1.20;99.90;;;;;;5024705;28;20089;-62
2021/04/06 00:41:14;;;;;;;14.85;6.25;;;1.20;99.90;;;;;;5025128;28;20029;-62
2021/04/06 00:43:46;;;;;;;14.73;5.82;;;;;;;;;;5024084;28;20071;-62
2021/04/06 00:46:21;;;;;;;11.93;6.18;;;;;;;;;;5024451;28;20112;-62
2021/04/06 00:48:51;;;;;;;14.52;6.93;;;;;;;;;;5024360;28;20060;-62
2021/04/06 00:51:19;;;;;;;19.15;7.13;;;;;;;;;;5023172;28;20018;-62
2021/04/06 00:54:12;;;;;;;16.50;6.00;;;;;;;;;;5023994;28;20029;-61
2021/04/06 00:56:41;;;;;;;22.23;6.78;;;;;;;;;;5022457;28;20037;-62
2021/04/06 00:59:16;;;;;;;15.10;6.75;;;;;;;;;;5024240;28;20085;-62
2021/04/06 01:01:45;;;;;;;15.07;6.25;;;;;;;;;;5024054;28;20018;-63
2021/04/06 01:04:18;;;;;;;14.10;6.13;;;;;;;;;;5024245;28;20190;-62
2021/04/06 01:07:04;;;;;;;12.52;5.63;;;;;;;;;;5022732;28;20069;-61
2021/04/06 01:09:36;;;;;;;14.90;5.72;;;1.20;99.90;;;;;;5024062;28;20014;-62
2021/04/06 01:12:06;;;;;;;12.35;5.50;;;1.10;99.90;;;;;;5023767;28;20018;-63
2021/04/06 01:14:36;;;;;;;11.73;5.53;;;1.10;99.90;;;;;;5023624;28;20021;-62
2021/04/06 01:17:09;;;;;;;11.85;5.93;;;1.10;99.90;;;;;;5022835;28;20014;-62
2021/04/06 01:19:38;;;;;;;12.68;5.90;;;1.10;99.90;;;;;;5022946;28;20255;-62
2021/04/06 01:22:07;;;;;;;;;;;1.00;99.90;;;;;;5024335;28;20321;-62
2021/04/06 01:24:37;;;;;;;17.13;6.20;;;1.00;99.90;;;;;;5023813;28;19902;-63
2021/04/06 01:27:18;;;;;;;14.32;5.70;;;1.00;99.90;;;;;;5023786;28;20032;-63
2021/04/06 01:29:53;;;;;;;13.57;5.88;;;1.00;99.90;;;;;;5023663;28;20018;-62
2021/04/06 01:32:27;;;;;;;17.33;7.20;;;1.00;99.90;;;;;;5023885;28;20048;-61
2021/04/06 01:34:55;;;;;;;14.75;5.97;;;1.00;99.90;;;;;;5022601;28;20026;-62
2021/04/06 01:37:25;;;;;;;14.70;5.68;;;1.00;99.90;;;;;;5023080;28;20022;-62
2021/04/06 01:39:56;;;;;;;14.52;6.03;;;1.10;99.90;;;;;;5023814;28;20309;-62
2021/04/06 01:42:28;;;;;;;14.40;5.70;;;1.00;99.90;;;;;;5024105;28;20014;-63
2021/04/06 01:44:59;;;;;;;16.35;6.60;;;1.00;99.90;;;;;;5023641;28;20029;-62
2021/04/06 01:47:27;;;;;;;12.77;6.43;;;1.00;99.90;;;;;;5024092;28;20085;-62
2021/04/06 01:49:57;;;;;;;14.20;6.40;;;1.10;99.90;;;;;;5023712;28;20355;-62
2021/04/06 01:52:26;;;;;;;15.00;6.57;;;1.10;99.90;;;;;;5023300;28;20340;-61
2021/04/06 01:54:57;;;;;;;16.40;6.00;;;1.10;99.90;;;;;;5023441;28;20033;-62
2021/04/06 01:57:32;;;;;;;12.80;5.63;;;1.20;99.90;;;;;;5022312;28;20025;-62
2021/04/06 02:00:04;;;;;;;13.38;5.63;;;1.30;99.90;;;;;;5023334;28;20029;-60
2021/04/06 02:02:35;;;;;;;12.55;6.05;;;1.20;99.90;;;;;;5023427;28;20025;-62
2021/04/06 02:05:07;;;;;;;10.90;5.20;;;1.30;99.90;;;;;;5022096;28;20026;-62
2021/04/06 02:07:38;;;;;;;15.43;6.07;;;1.30;99.90;;;;;;5023385;28;20024;-60
2021/04/06 02:10:08;;;;;;;11.15;5.60;;;1.30;99.90;;;;;;5023191;28;20297;-60
2021/04/06 02:12:44;;;;;;;13.80;5.82;;;1.40;99.90;;;;;;5023324;28;20339;-62
2021/04/06 02:15:13;;;;;;;18.10;6.68;;;1.30;99.90;;;;;;5023267;28;20022;-63
2021/04/06 02:17:51;;;;;;;15.13;6.85;;;1.30;99.90;;;;;;5023332;28;20304;-62
2021/04/06 02:20:26;;;;;;;18.65;7.90;;;1.30;99.90;;;;;;5023267;28;20093;-62
2021/04/06 02:23:00;;;;;;;14.55;5.80;;;1.40;99.90;;;;;;5023238;28;20032;-62
2021/04/06 02:25:30;;;;;;;15.88;6.25;;;1.40;99.90;;;;;;5023023;28;20017;-62
2021/04/06 02:27:56;;;;;;;15.05;5.55;;;1.40;99.90;;;;;;5023236;28;20037;-62
2021/04/06 02:30:30;;;;;;;14.55;5.88;;;1.40;99.90;;;;;;5022942;28;20072;-62
2021/04/06 02:33:02;;;;;;;16.15;5.30;;;1.40;99.90;;;;;;5023066;28;20022;-61
2021/04/06 02:35:31;;;;;;;16.05;6.47;;;1.50;99.90;;;;;;5023152;28;20232;-63
2021/04/06 02:38:03;;;;;;;18.10;5.93;;;1.50;99.90;;;;;;5023516;28;20045;-60
2021/04/06 02:40:31;;;;;;;14.02;5.60;;;1.60;99.90;;;;;;5023101;28;20018;-60
2021/04/06 02:42:59;;;;;;;13.65;5.63;;;1.60;99.90;;;;;;5022867;28;20045;-60
2021/04/06 02:45:29;;;;;;;13.30;6.10;;;1.60;99.90;;;;;;5022955;28;20219;-63
2021/04/06 02:48:07;;;;;;;12.45;5.97;;;1.60;99.90;;;;;;5023027;28;20018;-63
2021/04/06 02:50:36;;;;;;;16.88;5.72;;;1.60;99.90;;;;;;5026988;28;20085;-62
2021/04/06 02:53:07;;;;;;;17.60;6.38;;;1.60;99.90;;;;;;5026797;28;20029;-61
2021/04/06 02:55:36;;;;;;;14.35;5.63;;;1.60;99.90;;;;;;5026883;28;20225;-60
2021/04/06 02:58:16;;;;;;;15.80;5.55;;;1.60;99.90;;;;;;5026820;28;20014;-59
2021/04/06 03:00:44;;;;;;;12.65;5.97;;;1.60;99.90;;;;;;5026771;28;20093;-62
2021/04/06 03:03:22;;;;;;;16.63;5.85;;;1.50;99.90;;;;;;5026660;28;20018;-62
2021/04/06 03:06:02;;;;;;;15.50;6.95;;;1.60;99.90;;;;;;5027868;28;20014;-62
2021/04/06 03:08:31;;;;;;;13.02;5.35;;;1.60;99.90;;;;;;5027222;28;20202;-62
2021/04/06 03:11:00;;;;;;;17.23;5.60;;;1.60;99.90;;;;;;5028049;28;20081;-62
2021/04/06 03:13:29;;;;;;;13.68;5.57;;;1.60;99.90;;;;;;5027273;28;20022;-61
2021/04/06 03:15:57;;;;;;;16.50;5.85;;;1.60;99.90;;;;;;5026571;28;20317;-60
2021/04/06 03:18:41;;;;;;;14.30;5.65;;;1.70;99.90;;;;;;5026399;28;20076;-62
2021/04/06 03:21:11;;;;;;;16.48;6.10;;;1.70;99.90;;;;;;5026405;28;20025;-60
2021/04/06 03:23:55;;;;;;;13.30;5.75;;;1.50;99.90;;;;;;5026520;28;20030;-62
2021/04/06 03:26:24;;;;;;;16.55;6.82;;;1.50;99.90;;;;;;5026349;28;20336;-61
2021/04/06 03:28:52;;;;;;;17.33;6.38;;;1.30;99.90;;;;;;5026226;28;20086;-62
2021/04/06 03:31:21;;;;;;;15.57;5.72;;;1.30;99.90;;;;;;5026345;28;20098;-62
2021/04/06 03:33:49;;;;;;;14.13;6.32;;;1.20;99.90;;;;;;5024810;28;20028;-63
2021/04/06 03:36:29;;;;;;;18.17;6.53;;;1.30;99.90;;;;;;5026057;28;20025;-63
2021/04/06 03:39:05;;;;;;;19.85;8.23;;;1.20;99.90;;;;;;5025869;28;20037;-62
2021/04/06 03:41:34;;;;;;;13.15;6.22;;;1.20;99.90;;;;;;5025997;28;20018;-60
2021/04/06 03:44:12;;;;;;;19.58;6.95;;;1.20;99.90;;;;;;5025652;28;20051;-60
2021/04/06 03:46:43;;;;;;;15.23;6.75;;;1.20;99.90;;;;;;5024593;28;20029;-62
2021/04/06 03:49:23;;;;;;;17.42;6.05;;;1.20;99.90;;;;;;5025677;28;20243;-62
2021/04/06 03:51:56;;;;;;;12.48;6.30;;;1.20;99.90;;;;;;5024398;28;20285;-63
2021/04/06 03:54:43;;;;;;;17.50;6.93;;;1.20;99.90;;;;;;5025395;28;20056;-62
2021/04/06 03:57:30;;;;;;;14.63;6.07;;;1.20;99.90;;;;;;5025612;28;20088;-62
2021/04/06 03:59:59;;;;;;;13.77;5.95;;;1.30;99.90;;;;;;5024588;28;20029;-57
2021/04/06 04:02:27;;;;;;;16.38;6.00;;;1.30;99.90;;;;;;5025390;28;20033;-61
2021/04/06 04:04:56;;;;;;;17.40;6.47;;;1.30;99.90;;;;;;5025371;28;20090;-60
2021/04/06 04:07:25;;;;;;;25.05;7.35;;;1.30;99.90;;;;;;5025325;28;20037;-63
2021/04/06 04:09:52;;;;;;;;;;;1.40;99.90;;;;;;5026126;28;20105;-62
2021/04/06 04:12:20;;;;;;;16.25;6.65;;;1.40;99.90;;;;;;5025074;28;19908;-64
2021/04/06 04:14:48;;;;;;;18.10;6.82;;;1.40;99.90;;;;;;5025394;28;20026;-62
2021/04/06 04:17:16;;;;;;;15.93;6.90;;;1.30;99.90;;;;;;5024836;28;20321;-60
2021/04/06 04:19:44;;;;;;;15.52;7.55;;;1.30;99.90;;;;;;5023969;28;20033;-61
2021/04/06 04:22:12;;;;;;;17.75;6.80;;;1.20;99.90;;;;;;5025017;28;20217;-62
2021/04/06 04:24:40;;;;;;;19.23;6.68;;;1.30;99.90;;;;;;5024720;28;20093;-60
2021/04/06 04:27:08;;;;;;;21.05;6.65;;;1.30;99.90;;;;;;5023945;28;20045;-62
2021/04/06 04:29:36;;;;;;;17.33;7.63;;;1.40;99.90;;;;;;5023516;28;20018;-61
2021/04/06 04:32:12;;;;;;;19.08;6.70;;;1.40;99.90;;;;;;5024843;28;20024;-62
2021/04/06 04:34:41;;;;;;;18.98;7.20;;;1.40;99.90;;;;;;5024653;28;20065;-63
2021/04/06 04:37:09;;;;;;;19.85;8.70;;;1.40;99.90;;;;;;5025158;28;20245;-62
2021/04/06 04:39:37;;;;;;;21.60;7.65;;;1.40;99.90;;;;;;5024693;28;20032;-63
2021/04/06 04:42:05;;;;;;;16.20;7.13;;;1.40;99.90;;;;;;5024490;28;20097;-62
2021/04/06 04:44:31;;;;;;;25.75;8.68;;;1.40;99.90;;;;;;5024533;28;20022;-62
2021/04/06 04:46:59;;;;;;;23.15;8.32;;;1.40;99.90;;;;;;5024330;28;20212;-63
2021/04/06 04:49:26;;;;;;;18.38;7.43;;;1.40;99.90;;;;;;5023021;28;20044;-61
2021/04/06 04:51:55;;;;;;;20.38;8.38;;;1.40;99.90;;;;;;5023087;28;20022;-62
2021/04/06 04:54:23;;;;;;;20.00;7.30;;;1.40;99.90;;;;;;5023951;28;20026;-62
2021/04/06 04:56:51;;;;;;;26.42;7.32;;;1.30;99.90;;;;;;5024340;28;20022;-62
2021/04/06 04:59:19;;;;;;;17.40;7.10;;;1.20;99.90;;;;;;5023157;28;20022;-62
2021/04/06 05:01:47;;;;;;;;;;;1.20;99.90;;;;;;5023454;28;20272;-63
2021/04/06 05:04:15;;;;;;;25.35;10.02;;;1.20;99.90;;;;;;5023752;28;19912;-63
2021/04/06 05:06:43;;;;;;;19.17;8.15;;;1.20;99.90;;;;;;5023983;28;20351;-61
2021/04/06 05:09:11;;;;;;;19.15;7.35;;;1.20;99.90;;;;;;5023928;28;20037;-63
2021/04/06 05:11:39;;;;;;;19.58;7.93;;;1.20;99.90;;;;;;5023913;28;20057;-63
2021/04/06 05:14:07;;;;;;;23.80;7.30;;;1.30;99.90;;;;;;5022495;28;20225;-61
2021/04/06 05:16:35;;;;;;;22.20;7.60;;;1.30;99.90;;;;;;5024062;28;20143;-63
2021/04/06 05:19:03;;;;;;;17.02;7.25;;;1.30;99.90;;;;;;5023701;28;20089;-62
2021/04/06 05:21:31;;;;;;;20.52;8.10;;;1.30;99.90;;;;;;5023712;28;20026;-64
2021/04/06 05:24:00;;;;;;;25.27;9.25;;;1.20;99.90;;;;;;5023349;28;20317;-63
2021/04/06 05:26:28;;;;;;;22.55;6.80;;;1.20;99.90;;;;;;5023868;28;20021;-65
2021/04/06 05:28:55;;;;;;;20.58;6.78;;;1.30;99.90;;;;;;5023313;28;20014;-62
2021/04/06 05:31:23;;;;;;;22.50;7.97;;;1.30;99.90;;;;;;5023144;28;20065;-62
2021/04/06 05:33:56;;;;;;;20.95;7.32;;;1.40;99.90;;;;;;5023087;28;20116;-64
2021/04/06 05:36:23;;;;;;;18.58;8.32;;;1.40;99.90;;;;;;5022682;28;20085;-62
2021/04/06 05:38:51;;;;;;;16.30;6.85;;;1.30;99.90;;;;;;5022965;28;20030;-62
2021/04/06 05:41:20;;;;;;;22.27;8.38;;;1.30;99.90;;;;;;5023031;28;20021;-64
2021/04/06 05:43:55;;;;;;;25.85;8.65;;;1.20;99.90;;;;;;5022914;28;20032;-63
2021/04/06 05:46:23;;;;;;;23.65;8.45;;;1.20;99.90;;;;;;5022832;28;20026;-64
2021/04/06 05:48:52;;;;;;;;;;;1.20;99.90;;;;;;5023300;28;20014;-64
2021/04/06 05:51:21;;;;;;;18.23;7.75;;;1.10;99.90;;;;;;5022550;28;19901;-63
2021/04/06 05:53:49;;;;;;;19.73;6.75;;;1.10;99.90;;;;;;5022699;28;20092;-62
2021/04/06 05:56:17;;;;;;;21.80;9.02;;;1.10;99.90;;;;;;5022453;28;20025;-62
2021/04/06 05:58:45;;;;;;;25.00;8.95;;;1.10;99.90;;;;;;5021499;28;20049;-62
2021/04/06 06:01:13;;;;;;;14.93;6.68;;;1.10;99.90;;;;;;5043911;23;20222;-62
2021/04/06 06:03:41;;;;;;;19.48;8.75;;;1.10;99.90;;;;;;5020391;28;20044;-61
2021/04/06 06:06:09;;;;;;;19.67;7.38;;;1.10;99.90;;;;;;5019923;28;20252;-63
2021/04/06 06:08:39;;;;;;;17.42;6.07;;;1.10;99.90;;;;;;5021143;28;20021;-62
2021/04/06 06:11:07;;;;;;;22.30;7.18;;;1.10;99.90;;;;;;5024099;28;20022;-61
2021/04/06 06:13:35;;;;;;;26.63;9.13;;;1.10;99.90;;;;;;5021066;28;20067;-61
2021/04/06 06:16:10;;;;;;;16.77;6.97;;;1.20;99.90;;;;;;5021248;28;20113;-63
2021/04/06 06:19:11;;;;;;;22.95;7.95;;;1.40;99.90;;;;;;5021149;28;20017;-63
2021/04/06 06:21:53;;;;;;;17.98;6.63;;;1.60;99.90;;;;;;4979715;28;20314;-63
2021/04/06 06:24:35;;;;;;;21.70;7.88;;;1.60;99.90;;;;;;4963164;28;20030;-66
2021/04/06 06:27:36;;;;;;;17.90;6.78;;;1.70;99.90;;;;;;4979882;28;20019;-62
2021/04/06 06:30:42;;;;;;;25.45;9.57;;;1.80;99.90;;;;;;4979497;28;20074;-62
2021/04/06 06:33:20;;;;;;;15.30;5.85;;;1.90;99.90;;;;;;4963617;28;20038;-63
2021/04/06 06:35:54;;;;;;;;;;;2.00;99.90;;;;;;4979807;28;20023;-62
2021/04/06 06:38:30;;;;;;;28.08;8.35;;;2.10;99.90;;;;;;4979699;28;19949;-63
2021/04/06 06:41:14;;;;;;;21.70;8.23;;;2.20;99.90;;;;;;4963492;28;20037;-64
2021/04/06 06:43:45;;;;;;;20.30;7.68;;;2.40;99.90;;;;;;4979407;28;20034;-64
2021/04/06 06:46:23;;;;;;;21.02;6.50;;;2.40;99.90;;;;;;4979448;28;20025;-64
2021/04/06 06:49:27;;;;;;;21.73;7.90;;;2.50;99.90;;;;;;4979343;28;20037;-63
2021/04/06 06:51:56;;;;;;;19.92;6.82;;;2.40;99.90;;;;;;4979457;28;20015;-64
2021/04/06 06:54:39;;;;;;;19.88;6.88;;;2.40;99.90;;;;;;4979287;28;20090;-64
2021/04/06 06:57:12;;;;;;;17.40;7.70;;;2.40;99.90;;;;;;5020178;28;20151;-63
2021/04/06 06:59:44;;;;;;;25.98;7.30;;;2.40;99.90;;;;;;5020158;28;20045;-63
2021/04/06 07:02:23;;;;;;;16.63;6.60;;;2.40;99.90;;;;;;5020315;28;20057;-64
2021/04/06 07:04:50;;;;;;;22.58;7.93;;;2.40;99.90;;;;;;5020429;28;20067;-63
2021/04/06 07:07:18;;;;;;;20.25;7.00;;;2.40;99.90;;;;;;5020383;28;20037;-63
2021/04/06 07:09:47;;;;;;;20.08;8.15;;;2.50;99.90;;;;;;5019007;28;20213;-64
2021/04/06 07:12:17;;;;;;;20.63;7.55;;;2.60;99.90;;;;;;5020542;28;20014;-63
2021/04/06 07:14:47;;;;;;;21.98;8.65;;;2.50;99.90;;;;;;5020287;28;20257;-64
2021/04/06 07:17:15;;;;;;;15.68;7.38;;;2.40;99.90;;;;;;5020610;28;20032;-62
2021/04/06 07:19:45;;;;;;;13.52;6.68;;;2.40;99.90;;;;;;5020269;28;20017;-61
2021/04/06 07:22:18;;;;;;;21.83;7.63;;;2.40;99.90;;;;;;5020529;28;20250;-63
2021/04/06 07:24:48;;;;;;;17.00;6.70;;;2.40;99.90;;;;;;5020135;28;20052;-64
2021/04/06 07:27:16;;;;;;;20.30;7.47;;;2.60;99.90;;;;;;5020200;28;20037;-62
2021/04/06 07:29:44;;;;;;;22.35;7.57;;;2.60;99.90;;;;;;5019925;28;20328;-63
2021/04/06 07:32:14;;;;;;;17.48;7.45;;;2.90;99.90;;;;;;5020009;28;20101;-63
2021/04/06 07:34:43;;;;;;;16.55;6.50;;;2.90;99.90;;;;;;5019901;28;20215;-64
2021/04/06 07:37:12;;;;;;;20.20;6.65;;;;;;;;;;5022412;28;20025;-65
2021/04/06 07:39:41;;;;;;;15.07;6.05;;;;;;;;;;5023740;28;20022;-65
2021/04/06 07:42:07;;;;;;;15.27;6.63;;;;;;;;;;5023913;28;20054;-63
2021/04/06 07:44:37;;;;;;;15.88;7.50;;;;;;;;;;5023838;28;20029;-64
2021/04/06 07:47:03;;;;;;;20.92;6.53;;;;;;;;;;5023553;28;20042;-63
2021/04/06 07:49:37;;;;;;;20.30;7.72;;;;;;;;;;5023531;28;20072;-63
2021/04/06 07:52:05;;;;;;;16.35;6.85;;;;;;;;;;5023299;28;20044;-64
2021/04/06 07:54:32;;;;;;;14.77;7.05;;;;;;;;;;5023296;28;20101;-60
2021/04/06 07:56:58;;;;;;;18.63;6.82;;;;;;;;;;5023426;28;20363;-64
2021/04/06 07:59:24;;;;;;;16.00;7.47;;;;;;;;;;5023087;28;20083;-64
2021/04/06 08:01:50;;;;;;;18.30;6.88;;;;;;;;;;5021635;28;20075;-63
2021/04/06 08:04:17;;;;;;;18.98;7.82;;;;;;;;;;5022929;28;20101;-64
2021/04/06 08:06:51;;;;;;;18.60;6.80;;;;;;;;;;5022919;28;20083;-63
2021/04/06 08:09:29;;;;;;;15.43;6.50;;;3.20;99.90;;;;;;5023461;28;20022;-65
2021/04/06 08:12:33;;;;;;;16.45;7.65;;;3.60;99.90;;;;;;5022917;28;20014;-63
2021/04/06 08:15:00;;;;;;;16.77;6.65;;;3.30;99.90;;;;;;5017716;28;20029;-65
2021/04/06 08:17:26;;;;;;;19.13;7.82;;;3.20;99.90;;;;;;5022973;28;20022;-63
2021/04/06 08:19:58;;;;;;;17.27;7.88;;;3.60;99.90;;;;;;5022676;28;20037;-65
2021/04/06 08:22:26;;;;;;;19.60;7.80;;;;;;;;;;5022272;28;20025;-65
2021/04/06 08:24:52;;;;;;;17.00;7.68;;;;;;;;;;5022292;28;20077;-65
2021/04/06 08:27:33;;;;;;;17.50;7.35;;;;;;;;;;5022507;28;20032;-64
2021/04/06 08:30:26;;;;;;;15.57;7.53;;;;;;;;;;5022010;28;20309;-62
2021/04/06 08:32:58;;;;;;;15.80;6.47;;;;;;;;;;5022231;28;20241;-63
2021/04/06 08:35:46;;;;;;;15.27;5.75;;;;;;;;;;5020737;28;20018;-64
2021/04/06 08:40:50;;;;;;;19.45;7.28;;;3.40;99.90;;;;;;5022430;28;20050;-64
2021/04/06 08:43:19;;;;;;;15.27;6.20;;;3.40;99.90;;;;;;5021600;28;20032;-64
2021/04/06 08:45:56;;;;;;;;;;;3.60;99.90;;;;;;5022265;28;20075;-64
2021/04/06 08:48:53;;;;;;;16.02;6.63;;;3.60;99.90;;;;;;5022288;28;19925;-64
2021/04/06 08:51:37;;;;;;;16.67;6.13;;;3.60;99.90;;;;;;5021919;28;20212;-64
2021/04/06 08:54:17;;;;;;;15.98;6.15;;;3.60;99.90;;;;;;5021757;28;20029;-65
2021/04/06 08:56:46;;;;;;;17.45;6.70;;;3.70;99.90;;;;;;5021175;28;20350;-65
2021/04/06 08:59:15;;;;;;;14.93;7.03;;;3.80;99.90;;;;;;5021605;28;20320;-63
2021/04/06 09:01:55;;;;;;;21.60;6.82;;;3.90;99.90;;;;;;5021536;28;20025;-66
2021/04/06 09:04:27;;;;;;;20.55;6.50;;;4.20;99.90;;;;;;5020779;28;20328;-66
2021/04/06 09:06:53;;;;;;;20.60;6.85;;;4.30;99.90;;;;;;5022444;28;20021;-66
2021/04/06 09:15:19;;;;;;;15.77;5.97;;;;;;;;;;4982096;28;20046;-57
2021/04/06 09:17:45;;;;;;;18.05;7.53;;;;;;;;;;4999348;28;20031;-59
2021/04/06 09:20:16;;;;;;;16.08;7.30;;;;;;;;;;4984192;28;20019;-59
2021/04/06 09:22:45;;;;;;;15.68;6.82;;;;;;;;;;4984146;28;20035;-60
2021/04/06 09:25:19;;;;;;;21.15;7.50;;;;;;;;;;4984420;28;20035;-60
2021/04/06 09:27:52;;;;;;;15.90;8.00;;;;;;;;;;5021217;23;20122;-59
2021/04/06 09:30:19;;;;;;;14.32;7.25;;;;;;;;;;5002302;28;20320;-58
2021/04/06 09:32:48;;;;;;;15.13;7.80;;;4.50;99.90;;;;;;5001080;28;20233;-59
2021/04/06 09:35:17;;;;;;;16.80;6.45;;;5.00;99.90;;;;;;5001962;28;20018;-61
2021/04/06 09:37:43;;;;;;;16.45;7.00;;;5.00;99.90;;;;;;5002205;28;20033;-58
2021/04/06 09:40:10;;;;;;;18.27;6.57;;;5.00;99.90;;;;;;5002252;28;20086;-59
2021/04/06 09:42:35;;;;;;;20.73;6.90;;;4.70;99.90;;;;;;5001824;28;20022;-56
2021/04/06 09:45:03;;;;;;;19.10;7.15;;;4.60;99.90;;;;;;4993562;28;20022;-59
2021/04/06 09:47:34;;;;;;;14.95;6.45;;;4.50;99.90;;;;;;5001948;28;20019;-60
2021/04/06 09:50:03;;;;;;;14.63;6.13;;;4.40;99.90;;;;;;5001033;28;20022;-65
2021/04/06 09:52:29;;;;;;;17.58;7.13;;;4.50;99.90;;;;;;5000837;28;20014;-64
2021/04/06 09:55:04;;;;;;;14.93;5.50;;;4.20;99.90;;;;;;5001980;28;20022;-65
2021/04/06 09:57:36;;;;;;;20.88;7.18;;;;;;;;;;5001756;28;20029;-64
2021/04/06 10:00:05;;;;;;;14.35;5.18;;;;;;;;;;5000299;28;20042;-65
2021/04/06 10:02:31;;;;;;;15.30;5.75;;;;;;;;;;5001903;28;20324;-65
2021/04/06 10:04:57;;;;;;;15.07;7.15;;;4.10;99.90;;;;;;5001611;28;20069;-64
2021/04/06 10:07:35;;;;;;;15.82;5.90;;;2.80;99.90;;;;;;5001714;28;20315;-64
2021/04/06 10:10:17;;;;;;;15.88;6.25;;;2.20;99.90;;;;;;5001727;28;20285;-67
2021/04/06 10:12:43;;;;;;;13.75;5.90;;;1.80;99.90;;;;;;4999882;28;20029;-67
2021/04/06 10:15:10;;;;;;;14.35;5.90;;;1.70;99.90;;;;;;5001202;28;20396;-67
2021/04/06 10:17:38;;;;;;;13.00;5.63;;;2.00;99.90;;;;;;5001370;28;20049;-66
2021/04/06 10:20:12;;;;;;;;;;;2.40;99.90;;;;;;5001923;28;20304;-67
2021/04/06 10:22:44;;;;;;;13.90;5.70;;;2.50;99.90;;;;;;5001504;28;19901;-67
2021/04/06 10:25:12;;;;;;;11.82;5.60;;;2.70;99.90;;;;;;5001137;28;20058;-64
2021/04/06 10:27:45;;;;;;;12.07;5.57;;;3.10;99.90;;;;;;5001281;28;20267;-66
2021/04/06 10:30:27;;;;;;;13.48;5.90;;;3.20;99.90;;;;;;4999863;28;20088;-65
2021/04/06 10:33:12;;;;;;;12.45;5.53;;;3.30;99.90;;;;;;5001457;28;20048;-65
2021/04/06 10:35:45;;;;;;;13.13;5.80;;;3.30;99.90;;;;;;5001305;28;20230;-65
2021/04/06 10:38:20;;;;;;;13.45;5.70;;;3.40;99.90;;;;;;5001176;28;20061;-65
2021/04/06 10:40:48;;;;;;;13.82;6.50;;;3.60;99.90;;;;;;5001425;28;20100;-65
2021/04/06 10:43:20;;;;;;;15.20;5.65;;;3.60;99.90;;;;;;5001025;28;20019;-65
2021/04/06 10:45:57;;;;;;;13.57;5.45;;;3.60;99.90;;;;;;5001162;28;20336;-66
2021/04/06 10:48:27;;;;;;;14.18;6.05;;;3.60;99.90;;;;;;5000030;28;20327;-64
2021/04/06 10:50:58;;;;;;;13.23;5.80;;;3.50;99.90;;;;;;5001004;28;20324;-64
2021/04/06 10:53:27;;;;;;;19.83;5.35;;;3.80;99.90;;;;;;5001486;28;20211;-62
2021/04/06 10:56:02;;;;;;;8.25;4.05;;;3.90;99.90;;;;;;5000086;28;20101;-60
2021/04/06 10:58:30;;;;;;;9.95;4.40;;;3.90;99.90;;;;;;5000709;28;20014;-63
2021/04/06 11:01:07;;;;;;;12.13;4.40;;;4.10;99.90;;;;;;5001325;28;20026;-62
2021/04/06 11:03:45;;;;;;;13.48;5.53;;;4.50;99.90;;;;;;5001083;28;20234;-62
2021/04/06 11:06:14;;;;;;;14.07;5.60;;;4.50;99.90;;;;;;5000236;28;20391;-61
2021/04/06 11:08:43;;;;;;;13.77;5.53;;;3.80;99.90;;;;;;5001431;28;20339;-60
2021/04/06 11:11:23;;;;;;;10.82;5.00;;;3.50;99.90;;;;;;5004383;28;20046;-62
2021/04/06 11:13:50;;;;;;;13.90;6.00;;;3.00;99.90;;;;;;5003241;28;20048;-62
2021/04/06 11:16:17;;;;;;;14.05;5.90;;;;;;;;;;5004932;28;20033;-62
2021/04/06 11:18:44;;;;;;;14.25;6.32;;;;;;;;;;5004824;28;20219;-63
2021/04/06 11:21:11;;;;;;;14.57;6.57;;;;;;;;;;5004575;28;20023;-64
2021/04/06 11:23:37;;;;;;;15.18;6.97;;;;;;;;;;5004828;28;20076;-62
2021/04/06 11:26:03;;;;;;;16.77;6.35;;;;;;;;;;5004671;28;20022;-63
2021/04/06 11:28:29;;;;;;;15.30;7.70;;;;;;;;;;5004978;28;20216;-64
2021/04/06 11:30:56;;;;;;;14.70;6.40;;;;;;;;;;5004772;28;20022;-63
2021/04/06 11:33:22;;;;;;;16.70;7.80;;;;;;;;;;5004930;28;20022;-64
2021/04/06 11:35:48;;;;;;;13.57;6.68;;;2.40;99.90;;;;;;5004690;28;20308;-65
2021/04/06 11:38:16;;;;;;;14.43;7.00;;;;;;;;;;5004638;28;20026;-65
2021/04/06 11:40:42;;;;;;;13.95;7.10;;;3.50;99.90;;;;;;5004534;28;20023;-67
2021/04/06 11:43:09;;;;;;;14.10;7.32;;;5.90;99.90;;;;;;5003373;28;20046;-64
2021/04/06 11:45:34;;;;;;;14.05;6.90;;;6.10;99.90;;;;;;5004460;28;20400;-63
2021/04/06 11:48:00;;;;;;;15.18;6.55;;;6.40;99.90;;;;;;5004532;28;20065;-64
2021/04/06 11:50:26;;;;;;;12.07;6.05;;;7.10;99.90;;;;;;5004443;28;20077;-63
2021/04/06 11:52:52;;;;;;;14.40;6.28;;;7.50;99.90;;;;;;5003159;28;20312;-64
2021/04/06 11:55:19;;;;;;;16.52;6.95;;;7.50;99.90;;;;;;5004311;28;20022;-63
2021/04/06 11:57:45;;;;;;;13.98;7.07;;;7.30;99.90;;;;;;5003453;28;20097;-63
2021/04/06 12:00:12;;;;;;;15.77;6.63;;;;;;;;;;5003245;28;20213;-61
2021/04/06 12:02:38;;;;;;;15.48;7.60;;;;;;;;;;5004368;28;20324;-62
2021/04/06 12:05:04;;;;;;;15.98;8.10;;;;;;;;;;5004236;28;20053;-63
2021/04/06 12:07:30;;;;;;;18.38;6.32;;;7.50;99.90;;;;;;5004720;28;20022;-63
2021/04/06 12:09:58;;;;;;;13.90;6.68;;;8.20;99.90;;;;;;5004765;28;20359;-63
2021/04/06 12:12:23;;;;;;;14.03;6.00;;;8.40;99.90;;;;;;5002759;28;20281;-63
2021/04/06 12:14:49;;;;;;;15.25;6.70;;;7.70;99.90;;;;;;5004285;28;20071;-62
2021/04/06 12:17:16;;;;;;;13.18;5.43;;;6.90;99.90;;;;;;5004332;28;20052;-63
2021/04/06 12:19:42;;;;;;;15.02;5.82;;;6.30;99.90;;;;;;5004164;28;20229;-64
2021/04/06 12:22:08;;;;;;;14.68;5.97;;;6.00;99.90;;;;;;5003325;28;20025;-63
2021/04/06 12:24:33;;;;;;;15.40;7.35;;;5.80;99.90;;;;;;5003507;28;20090;-63
2021/04/06 12:26:59;;;;;;;16.58;6.65;;;5.90;99.90;;;;;;5003570;28;20026;-62
2021/04/06 12:29:25;;;;;;;12.77;5.90;;;5.90;99.90;;;;;;4670562;28;10001000;-61
2021/04/06 12:31:51;;;;;;;14.45;7.03;;;4.80;99.90;;;;;;5010540;28;20672;-62
2021/04/06 12:34:17;;;;;;;13.88;7.00;;;4.30;99.90;;;;;;5015339;28;20022;-61
2021/04/06 12:36:43;;;;;;;16.67;6.60;;;4.30;99.90;;;;;;5001214;28;20173;-62
2021/04/06 12:39:08;;;;;;;13.88;5.40;;;4.10;99.90;;;;;;5001133;28;20076;-62
2021/04/06 12:41:34;;;;;;;14.65;5.95;;;4.00;99.90;;;;;;5001445;28;20202;-62
2021/04/06 12:44:00;;;;;;;19.67;7.53;;;3.80;99.90;;;;;;5000775;28;20030;-62
2021/04/06 12:46:26;;;;;;;16.02;6.43;;;3.70;99.90;;;;;;5000986;28;20399;-62
2021/04/06 12:48:51;;;;;;;14.15;5.88;;;3.50;99.90;;;;;;5000813;28;20021;-62
2021/04/06 12:51:17;;;;;;;14.20;5.70;;;3.20;99.90;;;;;;4999600;28;20085;-63
2021/04/06 12:53:43;;;;;;;16.17;6.63;;;3.10;99.90;;;;;;5000988;28;20027;-63
2021/04/06 12:56:09;;;;;;;13.10;5.97;;;3.00;99.90;;;;;;5000724;28;20031;-64
2021/04/06 12:58:35;;;;;;;15.75;6.60;;;2.90;99.90;;;;;;5000786;28;20089;-62
2021/04/06 13:01:01;;;;;;;16.08;7.13;;;2.60;99.90;;;;;;5000752;28;20050;-63
2021/04/06 13:03:27;;;;;;;13.13;5.10;;;2.50;99.90;;;;;;5000666;28;20030;-62
2021/04/06 13:05:53;;;;;;;15.95;6.63;;;2.40;99.90;;;;;;5000561;28;20204;-63
2021/04/06 13:08:19;;;;;;;15.45;7.50;;;2.40;99.90;;;;;;4999456;28;20219;-61
2021/04/06 13:10:45;;;;;;;14.75;6.95;;;2.40;99.90;;;;;;5000229;28;20346;-64
2021/04/06 14:03:47;;;;;;;14.88;7.80;;;9.70;99.90;;;;;;5001687;28;20327;-64
2021/04/06 14:06:20;;;;;;;13.80;6.70;;;;;;;;;;5002007;28;20065;-64
2021/04/06 14:08:50;;;;;;;14.68;6.70;;;;;;;;;;5002209;28;20065;-64
2021/04/06 14:11:19;;;;;;;12.85;5.70;;;;;;;;;;5001033;28;20018;-64
2021/04/06 14:13:48;;;;;;;16.13;6.97;;;;;;;;;;5002113;28;20210;-63
2021/04/06 14:16:16;;;;;;;10.82;6.20;;;10.50;99.90;;;;;;5001827;28;20018;-60
2021/04/06 14:18:43;;;;;;;12.75;5.60;;;;;;;;;;5001951;28;20312;-62
2021/04/06 14:21:12;;;;;;;13.68;7.93;;;;;;;;;;5001898;28;20034;-63
2021/04/06 14:23:42;;;;;;;10.63;4.85;;;;;;;;;;5000620;28;20145;-60
2021/04/06 16:35:46;;;;;;;13.18;6.00;;;;;;;;;;4498993;29;10000583;-62